East Palatka, Florida
Current Conditions -  °F | °C
As of 4:58 AM on Thursday 23 Oct 2014 (Local Time) from KSGJ Reporting Station
Clear Clear  
Wind Chill: 57°   Ceiling: Unl
Heat Index: 57°   Visibility: 10mi
Dew Point: 51°   Wind: 7mph
Humidity: 81%   Direction: 310°NW
Pressure: 30"   Gusts: NA
Location:  29.66°N, 81.6°W
Report Text: KSGJ 230858Z AUTO 31006KT 10SM CLR 14/11 A3000 RMK AO2 SLP160 T01390106 56009
Loading
Personal Weather Stations






























Interactive Weather Map
Tropical Storm Tracking
New forecast layout! Learn more

10-Day Weather Forecast

Advertisements
Track Severe Weather on mobile